Latest Weather Observations for Arlington Reef

IDQ60801

Issued at 10:05 pm EST Monday 28 July 2014 (issued every 30 minutes, with the page automatically refreshed every 10 minutes)

About weather observations | Map of weather stations | Latest weather observations for QLD | Other Formats
Station Details ID: 200879 Name: ARLINGTON REEF Lat: -16.72 Lon: 146.11 Height: 0.0 m
Data from the previous 72 hours. | See also: Recent months at Arlington Reef
Date/Time
EST
Temp
°C
App
Temp
°C
Dew
Point
Rel
Hum
%
Delta-T
°C
Wind Press
QNH
hPa
Press
MSL
hPa
Rain
since 9 am
mm
Dir
 
Spd
km/h
Gust
km/h
Spd
kts
Gust
kts
28/10:00pm - - - - - SE 30 35 16 19 1019.4 1019.4 -
28/09:30pm - - - - - SE 30 35 16 19 1019.5 - -
28/09:00pm - - - - - SE 32 37 17 20 1019.3 1019.3 -
28/08:30pm - - - - - SE 28 35 15 19 1019.2 - -
28/08:00pm - - - - - SE 32 37 17 20 1019.1 1019.1 -
28/07:30pm - - - - - SE 30 37 16 20 1018.9 - -
28/07:00pm - - - - - SE 28 32 15 17 1018.6 1018.6 -
28/06:30pm - - - - - SE 30 33 16 18 1018.2 - -
28/06:00pm - - - - - SE 28 32 15 17 1018.0 1018.0 -
28/05:30pm - - - - - ESE 26 32 14 17 1017.7 - -
28/05:00pm - - - - - SE 24 30 13 16 1017.6 1017.6 -
28/04:30pm - - - - - ESE 26 30 14 16 1017.6 - -
28/04:00pm - - - - - SE 24 26 13 14 1017.7 1017.7 -
28/03:30pm - - - - - ESE 24 28 13 15 1017.6 - -
28/03:00pm - - - - - ESE 26 30 14 16 1017.7 1017.7 -
28/02:30pm - - - - - SSE 22 26 12 14 1017.9 - -
28/02:00pm - - - - - ESE 28 32 15 17 1018.1 1018.1 -
28/01:30pm - - - - - SSE 24 26 13 14 1018.5 - -
28/01:00pm - - - - - ESE 30 33 16 18 1018.9 1018.9 -
28/12:30pm - - - - - SE 30 35 16 19 1019.1 - -
28/12:00pm - - - - - ESE 30 35 16 19 1019.4 1019.4 -
28/11:30am - - - - - ESE 26 35 14 19 1019.8 - -
28/11:00am - - - - - ESE 28 35 15 19 1020.1 1020.1 -
28/10:30am - - - - - ESE 32 39 17 21 1020.2 - -
28/10:00am - - - - - ESE 32 39 17 21 1020.3 1020.3 -
28/09:30am - - - - - SE 30 35 16 19 1020.4 - -
28/09:00am - - - - - ESE 33 43 18 23 1020.4 1020.4 -
28/08:30am - - - - - SE 37 46 20 25 1019.9 - -
28/08:00am - - - - - SE 33 39 18 21 1019.5 1019.5 -
28/07:30am - - - - - SE 28 33 15 18 1019.2 - -
28/07:00am - - - - - SE 28 33 15 18 1018.8 1018.8 -
28/06:30am - - - - - SE 32 39 17 21 1018.3 - -
28/06:00am - - - - - SE 37 41 20 22 1018.0 1018.0 -
28/05:30am - - - - - SE 35 43 19 23 1017.9 - -
28/05:00am - - - - - SE 35 41 19 22 1017.9 1017.9 -
28/04:30am - - - - - SE 28 35 15 19 1017.8 - -
28/04:00am - - - - - SE 32 41 17 22 1017.8 1017.8 -
28/03:30am - - - - - SE 32 37 17 20 1017.9 - -
28/03:00am - - - - - ESE 39 54 21 29 1018.3 1018.3 -
28/02:53am - - - - - ESE 48 54 26 29 1018.0 - -
28/02:30am - - - - - SSE 32 41 17 22 1018.3 - -
28/02:00am - - - - - SE 30 37 16 20 1018.4 1018.4 -
28/01:30am - - - - - SE 32 37 17 20 1018.7 - -
28/01:00am - - - - - SE 32 35 17 19 1019.0 1019.0 -
28/12:30am - - - - - SE 32 37 17 20 1019.4 - -
28/12:00am - - - - - ESE 33 41 18 22 1019.7 1019.7 -
 
Date/Time
EST
Temp
°C
App
Temp
°C
Dew
Point
Rel
Hum
%
Delta-T
°C
Wind Press
QNH
hPa
Press
MSL
hPa
Rain
since 9 am
mm
Dir
 
Spd
km/h
Gust
km/h
Spd
kts
Gust
kts
27/11:30pm - - - - - SE 33 39 18 21 1019.9 - -
27/11:00pm - - - - - ESE 32 37 17 20 1020.2 1020.2 -
27/10:30pm - - - - - SE 33 39 18 21 1020.4 - -
27/10:00pm - - - - - ESE 33 41 18 22 1020.7 1020.7 -
27/09:30pm - - - - - ESE 37 43 20 23 1020.8 - -
27/09:00pm - - - - - ESE 37 43 20 23 1020.6 1020.6 -
27/08:30pm - - - - - ESE 35 43 19 23 1020.4 - -
27/08:00pm - - - - - ESE 37 43 20 23 1020.1 1020.1 -
27/07:30pm - - - - - SE 37 44 20 24 1019.7 - -
27/07:00pm - - - - - ESE 35 41 19 22 1019.3 1019.3 -
27/06:30pm - - - - - ESE 32 37 17 20 1019.0 - -
27/06:00pm - - - - - SE 33 39 18 21 1018.7 1018.7 -
27/05:30pm - - - - - SE 30 37 16 20 1018.3 - -
27/05:00pm - - - - - SE 33 39 18 21 1018.2 1018.2 -
27/04:30pm - - - - - SE 32 41 17 22 1018.0 - -
27/04:00pm - - - - - SE 32 39 17 21 1017.8 1017.8 -
27/03:30pm - - - - - SE 35 44 19 24 1017.6 - -
27/03:00pm - - - - - SE 35 41 19 22 1017.7 1017.7 -
27/02:30pm - - - - - SE 35 41 19 22 1017.8 - -
27/02:00pm - - - - - SE 35 41 19 22 1018.1 1018.1 -
27/01:30pm - - - - - SE 35 43 19 23 1018.4 - -
27/01:00pm - - - - - SE 37 44 20 24 1018.6 1018.6 -
27/12:30pm - - - - - SE 37 44 20 24 1019.2 - -
27/12:00pm - - - - - SE 35 43 19 23 1019.5 1019.5 -
27/11:30am - - - - - SE 33 44 18 24 1019.8 - -
27/11:00am - - - - - ESE 32 37 17 20 1019.9 1019.9 -
27/10:30am - - - - - ESE 32 39 17 21 1020.1 - -
27/10:00am - - - - - SSE 28 33 15 18 1020.4 1020.4 -
27/09:30am - - - - - SSE 28 37 15 20 1020.5 - -
27/09:00am - - - - - SE 32 37 17 20 1020.3 1020.3 -
27/08:30am - - - - - SE 32 39 17 21 1019.9 - -
27/08:00am - - - - - SE 30 33 16 18 1019.6 1019.6 -
27/07:30am - - - - - SSE 30 33 16 18 1019.4 - -
27/07:00am - - - - - SSE 32 35 17 19 1019.1 1019.1 -
27/06:30am - - - - - SSE 32 37 17 20 1018.8 - -
27/06:00am - - - - - SE 32 37 17 20 1018.6 1018.6 -
27/05:30am - - - - - SE 28 37 15 20 1018.4 - -
27/05:00am - - - - - SE 33 39 18 21 1018.1 1018.1 -
27/04:30am - - - - - SE 33 41 18 22 1018.2 - -
27/04:00am - - - - - SE 35 39 19 21 1018.3 1018.3 -
27/03:30am - - - - - SE 30 35 16 19 1018.4 - -
27/03:00am - - - - - SE 32 39 17 21 1018.7 1018.7 -
27/02:30am - - - - - SSE 35 41 19 22 1018.9 - -
27/02:00am - - - - - SSE 33 39 18 21 1019.2 1019.2 -
27/01:30am - - - - - SSE 35 43 19 23 1019.5 - -
27/01:00am - - - - - SSE 35 43 19 23 1019.9 1019.9 -
27/12:30am - - - - - SSE 35 41 19 22 1020.0 - -
27/12:00am - - - - - SSE 35 41 19 22 1020.4 1020.4 -
 
Date/Time
EST
Temp
°C
App
Temp
°C
Dew
Point
Rel
Hum
%
Delta-T
°C
Wind Press
QNH
hPa
Press
MSL
hPa
Rain
since 9 am
mm
Dir
 
Spd
km/h
Gust
km/h
Spd
kts
Gust
kts
26/11:30pm - - - - - SE 35 43 19 23 1020.6 - -
26/11:00pm - - - - - SE 33 39 18 21 1020.8 1020.8 -
26/10:30pm - - - - - SE 33 41 18 22 1021.0 - -
26/10:00pm - - - - - SSE 35 41 19 22 1021.0 1021.0 -
26/09:30pm - - - - - SE 35 43 19 23 1021.0 - -
26/09:00pm - - - - - SSE 33 39 18 21 1020.9 1020.9 -
26/08:30pm - - - - - SE 33 39 18 21 1020.9 - -
26/08:00pm - - - - - SE 33 39 18 21 1020.8 1020.8 -
26/07:30pm - - - - - SSE 33 41 18 22 1020.4 - -
26/07:00pm - - - - - SSE 33 41 18 22 1020.2 1020.2 -
26/06:30pm - - - - - SSE 35 39 19 21 1020.0 - -
26/06:00pm - - - - - SSE 33 39 18 21 1019.8 1019.8 -
26/05:30pm - - - - - SSE 35 41 19 22 1019.8 - -
26/05:00pm - - - - - SSE 33 39 18 21 1019.7 1019.7 -
26/04:30pm - - - - - SSE 37 43 20 23 1019.5 - -
26/04:00pm - - - - - SSE 35 43 19 23 1019.2 1019.2 -
26/03:30pm - - - - - SSE 32 41 17 22 1019.2 - -
26/03:00pm - - - - - SSE 32 41 17 22 1019.3 1019.3 -
26/02:30pm - - - - - SSE 35 39 19 21 1019.6 - -
26/02:00pm - - - - - S 32 39 17 21 1019.9 1019.9 -
26/01:30pm - - - - - S 35 43 19 23 1019.8 - -
26/01:00pm - - - - - S 33 41 18 22 1020.0 1020.0 -
26/12:30pm - - - - - SSE 33 39 18 21 1020.3 - -
26/12:00pm - - - - - SSE 33 39 18 21 1020.8 1020.8 -
26/11:30am - - - - - SSE 35 41 19 22 1021.0 - -
26/11:00am - - - - - SSE 35 43 19 23 1021.3 1021.3 -
26/10:30am - - - - - SSE 35 41 19 22 1021.7 - -
26/10:00am - - - - - SSE 35 43 19 23 1021.8 1021.8 -
26/09:30am - - - - - SSE 37 44 20 24 1021.6 - -
26/09:00am - - - - - SSE 37 44 20 24 1021.4 1021.4 -
26/08:30am - - - - - SSE 35 41 19 22 1021.1 - -
26/08:00am - - - - - SSE 33 39 18 21 1020.8 1020.8 -
26/07:30am - - - - - SE 33 37 18 20 1020.8 - -
26/07:00am - - - - - SE 37 44 20 24 1020.5 1020.5 -
26/06:30am - - - - - SE 33 41 18 22 1020.2 - -
26/06:00am - - - - - SE 30 37 16 20 1020.2 1020.2 -
26/05:39am - - - - - SE 30 46 16 25 1019.9 - -
26/05:30am - - - - - S 22 26 12 14 1020.0 - -
26/05:00am - - - - - S 28 33 15 18 1019.8 1019.8 -
26/04:30am - - - - - S 33 41 18 22 1019.6 - -
26/04:00am - - - - - S 32 39 17 21 1019.7 1019.7 -
26/03:30am - - - - - S 33 43 18 23 1019.7 - -
26/03:00am - - - - - S 30 33 16 18 1020.0 1020.0 -
26/02:30am - - - - - S 26 30 14 16 1019.9 - -
26/02:00am - - - - - SSE 30 37 16 20 1020.1 1020.1 -
26/01:30am - - - - - SSE 37 43 20 23 1020.4 - -
26/01:00am - - - - - S 33 39 18 21 1020.4 1020.4 -
26/12:30am - - - - - SSE 24 28 13 15 1021.0 - -
26/12:00am - - - - - SSE 28 32 15 17 1021.2 1021.2 -
 
Date/Time
EST
Temp
°C
App
Temp
°C
Dew
Point
Rel
Hum
%
Delta-T
°C
Wind Press
QNH
hPa
Press
MSL
hPa
Rain
since 9 am
mm
Dir
 
Spd
km/h
Gust
km/h
Spd
kts
Gust
kts
25/11:30pm - - - - - SE 30 35 16 19 1021.4 - -
25/11:00pm - - - - - ESE 24 32 13 17 1021.8 1021.8 -
25/10:30pm - - - - - SSE 28 33 15 18 1021.8 - -

Other Formats:

Comma delimited format used in spreadsheet applications
http://www.bom.gov.au/fwo/IDQ60801/IDQ60801.94284.axf

JavaScript Object Notation format (JSON) in row-major order
http://www.bom.gov.au/fwo/IDQ60801/IDQ60801.94284.json